sensor_id;sensor_type;location;lat;lon;timestamp;P1;durP1;ratioP1;P2;durP2;ratioP2
13989;SDS011;7069;52.528;13.316;2022-12-05T00:00:08;64.60;;;34.07;;
13989;SDS011;7069;52.528;13.316;2022-12-05T00:02:36;62.90;;;32.67;;
13989;SDS011;7069;52.528;13.316;2022-12-05T00:05:03;70.60;;;34.20;;
13989;SDS011;7069;52.528;13.316;2022-12-05T00:07:30;62.40;;;33.20;;
13989;SDS011;7069;52.528;13.316;2022-12-05T00:09:57;66.13;;;33.37;;
13989;SDS011;7069;52.528;13.316;2022-12-05T00:12:23;56.07;;;32.20;;
13989;SDS011;7069;52.528;13.316;2022-12-05T00:14:50;62.93;;;33.80;;
13989;SDS011;7069;52.528;13.316;2022-12-05T00:17:18;63.23;;;33.17;;
13989;SDS011;7069;52.528;13.316;2022-12-05T00:19:45;68.13;;;31.50;;
13989;SDS011;7069;52.528;13.316;2022-12-05T00:22:11;74.33;;;32.07;;
13989;SDS011;7069;52.528;13.316;2022-12-05T00:24:38;63.27;;;33.27;;
13989;SDS011;7069;52.528;13.316;2022-12-05T00:27:05;64.80;;;33.50;;
13989;SDS011;7069;52.528;13.316;2022-12-05T00:29:32;63.87;;;33.03;;
13989;SDS011;7069;52.528;13.316;2022-12-05T00:31:58;62.53;;;31.30;;
13989;SDS011;7069;52.528;13.316;2022-12-05T00:34:26;68.47;;;34.93;;
13989;SDS011;7069;52.528;13.316;2022-12-05T00:36:53;63.37;;;31.63;;
13989;SDS011;7069;52.528;13.316;2022-12-05T00:39:20;69.97;;;35.17;;
13989;SDS011;7069;52.528;13.316;2022-12-05T00:41:46;60.37;;;32.10;;
13989;SDS011;7069;52.528;13.316;2022-12-05T00:44:13;70.13;;;35.57;;
13989;SDS011;7069;52.528;13.316;2022-12-05T00:46:40;64.50;;;34.73;;
13989;SDS011;7069;52.528;13.316;2022-12-05T00:49:06;68.57;;;33.90;;
13989;SDS011;7069;52.528;13.316;2022-12-05T00:51:36;69.27;;;34.57;;
13989;SDS011;7069;52.528;13.316;2022-12-05T00:54:04;72.90;;;34.47;;
13989;SDS011;7069;52.528;13.316;2022-12-05T00:56:31;65.07;;;33.23;;
13989;SDS011;7069;52.528;13.316;2022-12-05T00:58:59;64.40;;;32.77;;
13989;SDS011;7069;52.528;13.316;2022-12-05T01:01:27;70.73;;;34.73;;
13989;SDS011;7069;52.528;13.316;2022-12-05T01:03:56;61.77;;;33.83;;
13989;SDS011;7069;52.528;13.316;2022-12-05T01:06:25;70.10;;;37.63;;
13989;SDS011;7069;52.528;13.316;2022-12-05T01:08:53;64.50;;;34.87;;
13989;SDS011;7069;52.528;13.316;2022-12-05T01:11:21;58.10;;;31.93;;
13989;SDS011;7069;52.528;13.316;2022-12-05T01:13:48;68.33;;;34.43;;
13989;SDS011;7069;52.528;13.316;2022-12-05T01:16:15;63.50;;;33.13;;
13989;SDS011;7069;52.528;13.316;2022-12-05T01:18:43;60.97;;;33.77;;
13989;SDS011;7069;52.528;13.316;2022-12-05T01:21:10;57.93;;;31.30;;
13989;SDS011;7069;52.528;13.316;2022-12-05T01:23:37;58.23;;;33.43;;
13989;SDS011;7069;52.528;13.316;2022-12-05T01:26:06;63.07;;;31.60;;
13989;SDS011;7069;52.528;13.316;2022-12-05T01:28:34;62.83;;;34.67;;
13989;SDS011;7069;52.528;13.316;2022-12-05T01:31:03;57.00;;;33.60;;
13989;SDS011;7069;52.528;13.316;2022-12-05T01:33:30;62.70;;;32.97;;
13989;SDS011;7069;52.528;13.316;2022-12-05T01:35:57;60.60;;;34.37;;
13989;SDS011;7069;52.528;13.316;2022-12-05T01:38:24;63.90;;;31.50;;
13989;SDS011;7069;52.528;13.316;2022-12-05T01:40:58;60.77;;;34.20;;
13989;SDS011;7069;52.528;13.316;2022-12-05T01:43:26;65.17;;;34.50;;
13989;SDS011;7069;52.528;13.316;2022-12-05T01:45:53;66.13;;;32.50;;
13989;SDS011;7069;52.528;13.316;2022-12-05T01:48:20;59.77;;;32.70;;
13989;SDS011;7069;52.528;13.316;2022-12-05T01:50:49;64.33;;;32.67;;
13989;SDS011;7069;52.528;13.316;2022-12-05T01:53:16;61.77;;;31.57;;
13989;SDS011;7069;52.528;13.316;2022-12-05T01:55:43;62.40;;;32.57;;
13989;SDS011;7069;52.528;13.316;2022-12-05T01:58:10;64.63;;;34.70;;
13989;SDS011;7069;52.528;13.316;2022-12-05T02:00:39;62.50;;;35.27;;
13989;SDS011;7069;52.528;13.316;2022-12-05T02:03:07;64.37;;;34.97;;
13989;SDS011;7069;52.528;13.316;2022-12-05T02:05:35;66.20;;;32.80;;
13989;SDS011;7069;52.528;13.316;2022-12-05T02:08:03;67.03;;;35.47;;
13989;SDS011;7069;52.528;13.316;2022-12-05T02:10:34;66.93;;;34.63;;
13989;SDS011;7069;52.528;13.316;2022-12-05T02:13:04;70.00;;;33.43;;
13989;SDS011;7069;52.528;13.316;2022-12-05T02:15:39;62.67;;;33.53;;
13989;SDS011;7069;52.528;13.316;2022-12-05T02:18:15;60.63;;;33.57;;
13989;SDS011;7069;52.528;13.316;2022-12-05T02:20:53;58.03;;;32.87;;
13989;SDS011;7069;52.528;13.316;2022-12-05T02:23:54;68.40;;;37.63;;
13989;SDS011;7069;52.528;13.316;2022-12-05T02:29:38;65.30;;;34.10;;
13989;SDS011;7069;52.528;13.316;2022-12-05T02:32:10;57.87;;;30.53;;
13989;SDS011;7069;52.528;13.316;2022-12-05T02:34:42;56.60;;;31.97;;
13989;SDS011;7069;52.528;13.316;2022-12-05T02:37:13;54.83;;;30.50;;
13989;SDS011;7069;52.528;13.316;2022-12-05T02:39:44;60.30;;;33.90;;
13989;SDS011;7069;52.528;13.316;2022-12-05T02:42:14;72.07;;;33.83;;
13989;SDS011;7069;52.528;13.316;2022-12-05T02:44:45;64.43;;;32.47;;
13989;SDS011;7069;52.528;13.316;2022-12-05T02:47:16;53.83;;;31.60;;
13989;SDS011;7069;52.528;13.316;2022-12-05T02:49:44;58.47;;;32.37;;
13989;SDS011;7069;52.528;13.316;2022-12-05T02:52:12;58.30;;;30.83;;
13989;SDS011;7069;52.528;13.316;2022-12-05T02:54:43;58.57;;;31.97;;
13989;SDS011;7069;52.528;13.316;2022-12-05T02:57:12;57.90;;;32.50;;
13989;SDS011;7069;52.528;13.316;2022-12-05T02:59:40;60.83;;;31.80;;
13989;SDS011;7069;52.528;13.316;2022-12-05T03:02:19;60.77;;;30.70;;
13989;SDS011;7069;52.528;13.316;2022-12-05T03:04:48;59.97;;;30.37;;
13989;SDS011;7069;52.528;13.316;2022-12-05T03:07:15;54.07;;;31.13;;
13989;SDS011;7069;52.528;13.316;2022-12-05T03:09:44;59.63;;;31.07;;
13989;SDS011;7069;52.528;13.316;2022-12-05T03:12:14;58.37;;;29.57;;
13989;SDS011;7069;52.528;13.316;2022-12-05T03:14:44;57.20;;;31.40;;
13989;SDS011;7069;52.528;13.316;2022-12-05T03:17:15;61.40;;;30.80;;
13989;SDS011;7069;52.528;13.316;2022-12-05T03:19:47;53.13;;;28.13;;
13989;SDS011;7069;52.528;13.316;2022-12-05T03:22:18;54.00;;;30.30;;
13989;SDS011;7069;52.528;13.316;2022-12-05T03:24:48;55.07;;;27.67;;
13989;SDS011;7069;52.528;13.316;2022-12-05T03:27:15;49.10;;;26.97;;
13989;SDS011;7069;52.528;13.316;2022-12-05T03:29:49;51.53;;;28.13;;
13989;SDS011;7069;52.528;13.316;2022-12-05T03:32:20;44.03;;;26.37;;
13989;SDS011;7069;52.528;13.316;2022-12-05T03:34:51;51.13;;;27.07;;
13989;SDS011;7069;52.528;13.316;2022-12-05T03:37:25;47.13;;;26.23;;
13989;SDS011;7069;52.528;13.316;2022-12-05T03:39:59;44.93;;;25.13;;
13989;SDS011;7069;52.528;13.316;2022-12-05T03:42:32;48.10;;;26.87;;
13989;SDS011;7069;52.528;13.316;2022-12-05T03:45:02;44.27;;;24.87;;
13989;SDS011;7069;52.528;13.316;2022-12-05T03:47:34;46.23;;;25.13;;
13989;SDS011;7069;52.528;13.316;2022-12-05T03:50:08;41.73;;;24.73;;
13989;SDS011;7069;52.528;13.316;2022-12-05T03:52:38;39.77;;;24.70;;
13989;SDS011;7069;52.528;13.316;2022-12-05T03:55:08;41.40;;;23.37;;
13989;SDS011;7069;52.528;13.316;2022-12-05T03:57:39;49.13;;;25.53;;
13989;SDS011;7069;52.528;13.316;2022-12-05T04:00:08;38.73;;;22.93;;
13989;SDS011;7069;52.528;13.316;2022-12-05T04:02:39;40.57;;;22.63;;
13989;SDS011;7069;52.528;13.316;2022-12-05T04:05:11;37.00;;;23.57;;
13989;SDS011;7069;52.528;13.316;2022-12-05T04:07:42;42.50;;;24.10;;
13989;SDS011;7069;52.528;13.316;2022-12-05T04:10:12;38.23;;;23.67;;
13989;SDS011;7069;52.528;13.316;2022-12-05T04:12:41;45.33;;;25.13;;
13989;SDS011;7069;52.528;13.316;2022-12-05T04:15:09;37.37;;;23.97;;
13989;SDS011;7069;52.528;13.316;2022-12-05T04:17:43;44.00;;;24.80;;
13989;SDS011;7069;52.528;13.316;2022-12-05T04:20:13;41.23;;;24.33;;
13989;SDS011;7069;52.528;13.316;2022-12-05T04:22:59;42.00;;;25.37;;
13989;SDS011;7069;52.528;13.316;2022-12-05T04:25:27;41.93;;;24.63;;
13989;SDS011;7069;52.528;13.316;2022-12-05T04:28:04;45.17;;;26.17;;
13989;SDS011;7069;52.528;13.316;2022-12-05T04:30:39;37.73;;;24.63;;
13989;SDS011;7069;52.528;13.316;2022-12-05T04:33:11;46.83;;;26.27;;
13989;SDS011;7069;52.528;13.316;2022-12-05T04:35:42;37.73;;;24.60;;
13989;SDS011;7069;52.528;13.316;2022-12-05T04:38:14;38.33;;;23.07;;
13989;SDS011;7069;52.528;13.316;2022-12-05T04:40:46;41.47;;;24.07;;
13989;SDS011;7069;52.528;13.316;2022-12-05T04:43:16;42.70;;;24.67;;
13989;SDS011;7069;52.528;13.316;2022-12-05T04:45:45;47.67;;;25.20;;
13989;SDS011;7069;52.528;13.316;2022-12-05T04:48:15;35.40;;;23.87;;
13989;SDS011;7069;52.528;13.316;2022-12-05T04:50:43;41.13;;;24.60;;
13989;SDS011;7069;52.528;13.316;2022-12-05T04:53:11;43.70;;;23.87;;
13989;SDS011;7069;52.528;13.316;2022-12-05T04:55:40;39.27;;;23.27;;
13989;SDS011;7069;52.528;13.316;2022-12-05T04:58:09;37.37;;;23.93;;
13989;SDS011;7069;52.528;13.316;2022-12-05T05:00:38;33.63;;;22.17;;
13989;SDS011;7069;52.528;13.316;2022-12-05T05:03:12;38.03;;;22.87;;
13989;SDS011;7069;52.528;13.316;2022-12-05T05:05:47;39.47;;;22.83;;
13989;SDS011;7069;52.528;13.316;2022-12-05T05:08:16;36.37;;;22.23;;
13989;SDS011;7069;52.528;13.316;2022-12-05T05:10:46;40.00;;;25.13;;
13989;SDS011;7069;52.528;13.316;2022-12-05T05:13:16;31.53;;;19.77;;
13989;SDS011;7069;52.528;13.316;2022-12-05T05:15:43;36.47;;;21.70;;
13989;SDS011;7069;52.528;13.316;2022-12-05T05:18:10;37.90;;;21.60;;
13989;SDS011;7069;52.528;13.316;2022-12-05T05:20:38;33.87;;;21.40;;
13989;SDS011;7069;52.528;13.316;2022-12-05T05:23:05;34.97;;;21.17;;
13989;SDS011;7069;52.528;13.316;2022-12-05T05:25:32;36.70;;;20.87;;
13989;SDS011;7069;52.528;13.316;2022-12-05T05:27:59;35.70;;;21.33;;
13989;SDS011;7069;52.528;13.316;2022-12-05T05:30:26;37.90;;;21.73;;
13989;SDS011;7069;52.528;13.316;2022-12-05T05:32:53;31.77;;;20.20;;
13989;SDS011;7069;52.528;13.316;2022-12-05T05:35:19;32.53;;;19.57;;
13989;SDS011;7069;52.528;13.316;2022-12-05T05:37:48;33.03;;;20.07;;
13989;SDS011;7069;52.528;13.316;2022-12-05T05:40:15;30.77;;;19.30;;
13989;SDS011;7069;52.528;13.316;2022-12-05T05:42:43;30.97;;;19.70;;
13989;SDS011;7069;52.528;13.316;2022-12-05T05:45:10;30.33;;;19.53;;
13989;SDS011;7069;52.528;13.316;2022-12-05T05:47:38;33.50;;;19.40;;
13989;SDS011;7069;52.528;13.316;2022-12-05T05:50:05;30.00;;;19.07;;
13989;SDS011;7069;52.528;13.316;2022-12-05T05:52:33;29.97;;;19.13;;
13989;SDS011;7069;52.528;13.316;2022-12-05T05:55:03;28.80;;;18.17;;
13989;SDS011;7069;52.528;13.316;2022-12-05T05:57:31;25.53;;;17.97;;
13989;SDS011;7069;52.528;13.316;2022-12-05T05:59:58;23.10;;;15.97;;
13989;SDS011;7069;52.528;13.316;2022-12-05T06:02:24;25.37;;;17.57;;
13989;SDS011;7069;52.528;13.316;2022-12-05T06:04:51;24.27;;;15.13;;
13989;SDS011;7069;52.528;13.316;2022-12-05T06:07:18;23.83;;;16.17;;
13989;SDS011;7069;52.528;13.316;2022-12-05T06:09:45;26.23;;;16.27;;
13989;SDS011;7069;52.528;13.316;2022-12-05T06:12:13;23.20;;;15.37;;
13989;SDS011;7069;52.528;13.316;2022-12-05T06:14:40;21.47;;;14.70;;
13989;SDS011;7069;52.528;13.316;2022-12-05T06:17:07;21.97;;;14.67;;
13989;SDS011;7069;52.528;13.316;2022-12-05T06:19:34;23.43;;;15.77;;
13989;SDS011;7069;52.528;13.316;2022-12-05T06:22:01;23.40;;;15.37;;
13989;SDS011;7069;52.528;13.316;2022-12-05T06:24:28;17.57;;;13.57;;
13989;SDS011;7069;52.528;13.316;2022-12-05T06:26:55;23.40;;;13.03;;
13989;SDS011;7069;52.528;13.316;2022-12-05T06:29:23;23.70;;;13.77;;
13989;SDS011;7069;52.528;13.316;2022-12-05T06:31:50;22.07;;;13.77;;
13989;SDS011;7069;52.528;13.316;2022-12-05T06:34:17;20.00;;;14.03;;
13989;SDS011;7069;52.528;13.316;2022-12-05T06:36:44;18.27;;;12.63;;
13989;SDS011;7069;52.528;13.316;2022-12-05T06:39:11;20.37;;;14.17;;
13989;SDS011;7069;52.528;13.316;2022-12-05T06:41:38;20.87;;;12.87;;
13989;SDS011;7069;52.528;13.316;2022-12-05T06:44:05;20.37;;;14.20;;
13989;SDS011;7069;52.528;13.316;2022-12-05T06:46:33;25.30;;;14.40;;
13989;SDS011;7069;52.528;13.316;2022-12-05T06:49:00;22.27;;;13.47;;
13989;SDS011;7069;52.528;13.316;2022-12-05T06:51:26;20.27;;;13.77;;
13989;SDS011;7069;52.528;13.316;2022-12-05T06:53:54;18.83;;;13.67;;
13989;SDS011;7069;52.528;13.316;2022-12-05T06:56:21;22.50;;;14.63;;
13989;SDS011;7069;52.528;13.316;2022-12-05T06:58:48;18.47;;;13.33;;
13989;SDS011;7069;52.528;13.316;2022-12-05T07:01:17;16.60;;;13.10;;
13989;SDS011;7069;52.528;13.316;2022-12-05T07:04:04;24.47;;;13.13;;
13989;SDS011;7069;52.528;13.316;2022-12-05T07:06:32;21.13;;;13.57;;
13989;SDS011;7069;52.528;13.316;2022-12-05T07:09:00;17.50;;;13.37;;
13989;SDS011;7069;52.528;13.316;2022-12-05T07:11:26;24.63;;;14.30;;
13989;SDS011;7069;52.528;13.316;2022-12-05T07:13:53;20.23;;;13.77;;
13989;SDS011;7069;52.528;13.316;2022-12-05T07:16:20;21.90;;;14.93;;
13989;SDS011;7069;52.528;13.316;2022-12-05T07:18:48;17.17;;;13.10;;
13989;SDS011;7069;52.528;13.316;2022-12-05T07:21:16;21.07;;;14.53;;
13989;SDS011;7069;52.528;13.316;2022-12-05T07:23:46;20.60;;;15.33;;
13989;SDS011;7069;52.528;13.316;2022-12-05T07:26:15;21.33;;;14.03;;
13989;SDS011;7069;52.528;13.316;2022-12-05T07:28:43;21.60;;;15.30;;
13989;SDS011;7069;52.528;13.316;2022-12-05T07:31:10;21.73;;;14.50;;
13989;SDS011;7069;52.528;13.316;2022-12-05T07:33:39;20.63;;;14.50;;
13989;SDS011;7069;52.528;13.316;2022-12-05T07:36:07;23.90;;;14.63;;
13989;SDS011;7069;52.528;13.316;2022-12-05T07:38:38;23.63;;;14.77;;
13989;SDS011;7069;52.528;13.316;2022-12-05T07:41:06;18.03;;;13.90;;
13989;SDS011;7069;52.528;13.316;2022-12-05T07:43:34;25.53;;;13.63;;
13989;SDS011;7069;52.528;13.316;2022-12-05T07:46:01;17.83;;;14.27;;
13989;SDS011;7069;52.528;13.316;2022-12-05T07:48:28;19.20;;;13.53;;
13989;SDS011;7069;52.528;13.316;2022-12-05T07:50:58;20.97;;;14.20;;
13989;SDS011;7069;52.528;13.316;2022-12-05T07:53:25;20.63;;;14.73;;
13989;SDS011;7069;52.528;13.316;2022-12-05T07:55:54;19.97;;;13.83;;
13989;SDS011;7069;52.528;13.316;2022-12-05T07:58:21;20.50;;;14.43;;
13989;SDS011;7069;52.528;13.316;2022-12-05T08:00:48;20.97;;;14.60;;
13989;SDS011;7069;52.528;13.316;2022-12-05T08:03:15;17.70;;;12.40;;
13989;SDS011;7069;52.528;13.316;2022-12-05T08:05:41;20.00;;;14.63;;
13989;SDS011;7069;52.528;13.316;2022-12-05T08:08:08;19.57;;;13.87;;
13989;SDS011;7069;52.528;13.316;2022-12-05T08:10:35;18.17;;;12.63;;
13989;SDS011;7069;52.528;13.316;2022-12-05T08:13:03;23.50;;;13.13;;
13989;SDS011;7069;52.528;13.316;2022-12-05T08:15:33;18.43;;;13.07;;
13989;SDS011;7069;52.528;13.316;2022-12-05T08:18:00;18.77;;;13.37;;
13989;SDS011;7069;52.528;13.316;2022-12-05T08:20:27;16.73;;;12.10;;
13989;SDS011;7069;52.528;13.316;2022-12-05T08:22:54;18.33;;;12.30;;
13989;SDS011;7069;52.528;13.316;2022-12-05T08:25:21;18.93;;;12.47;;
13989;SDS011;7069;52.528;13.316;2022-12-05T08:27:48;17.53;;;13.03;;
13989;SDS011;7069;52.528;13.316;2022-12-05T08:30:16;16.20;;;12.20;;
13989;SDS011;7069;52.528;13.316;2022-12-05T08:32:43;17.83;;;12.70;;
13989;SDS011;7069;52.528;13.316;2022-12-05T08:35:11;18.70;;;13.90;;
13989;SDS011;7069;52.528;13.316;2022-12-05T08:37:38;18.70;;;14.43;;
13989;SDS011;7069;52.528;13.316;2022-12-05T08:40:05;19.00;;;13.77;;
13989;SDS011;7069;52.528;13.316;2022-12-05T08:42:33;16.07;;;12.27;;
13989;SDS011;7069;52.528;13.316;2022-12-05T08:45:00;19.10;;;13.87;;
13989;SDS011;7069;52.528;13.316;2022-12-05T08:47:28;17.60;;;13.63;;
13989;SDS011;7069;52.528;13.316;2022-12-05T08:49:55;21.20;;;13.33;;
13989;SDS011;7069;52.528;13.316;2022-12-05T08:52:22;16.37;;;12.77;;
13989;SDS011;7069;52.528;13.316;2022-12-05T08:54:48;16.70;;;13.57;;
13989;SDS011;7069;52.528;13.316;2022-12-05T08:57:15;18.57;;;13.00;;
13989;SDS011;7069;52.528;13.316;2022-12-05T08:59:42;25.90;;;12.47;;
13989;SDS011;7069;52.528;13.316;2022-12-05T09:02:09;18.20;;;12.90;;
13989;SDS011;7069;52.528;13.316;2022-12-05T09:04:37;16.77;;;13.97;;
13989;SDS011;7069;52.528;13.316;2022-12-05T09:07:04;20.73;;;14.23;;
13989;SDS011;7069;52.528;13.316;2022-12-05T09:09:32;20.03;;;13.77;;
13989;SDS011;7069;52.528;13.316;2022-12-05T09:11:59;18.43;;;13.40;;
13989;SDS011;7069;52.528;13.316;2022-12-05T09:14:26;23.00;;;14.93;;
13989;SDS011;7069;52.528;13.316;2022-12-05T09:16:57;17.93;;;13.40;;
13989;SDS011;7069;52.528;13.316;2022-12-05T09:19:24;21.07;;;13.83;;
13989;SDS011;7069;52.528;13.316;2022-12-05T09:21:53;20.37;;;13.80;;
13989;SDS011;7069;52.528;13.316;2022-12-05T09:24:20;19.07;;;12.53;;
13989;SDS011;7069;52.528;13.316;2022-12-05T09:26:47;19.70;;;12.43;;
13989;SDS011;7069;52.528;13.316;2022-12-05T09:29:14;18.70;;;13.47;;
13989;SDS011;7069;52.528;13.316;2022-12-05T09:31:40;16.40;;;12.83;;
13989;SDS011;7069;52.528;13.316;2022-12-05T09:34:08;20.77;;;12.90;;
13989;SDS011;7069;52.528;13.316;2022-12-05T09:36:37;16.23;;;12.00;;
13989;SDS011;7069;52.528;13.316;2022-12-05T09:39:05;16.27;;;12.57;;
13989;SDS011;7069;52.528;13.316;2022-12-05T09:41:45;17.70;;;12.77;;
13989;SDS011;7069;52.528;13.316;2022-12-05T09:44:39;13.77;;;11.13;;
13989;SDS011;7069;52.528;13.316;2022-12-05T09:47:10;19.17;;;13.47;;
13989;SDS011;7069;52.528;13.316;2022-12-05T09:49:43;16.53;;;12.77;;
13989;SDS011;7069;52.528;13.316;2022-12-05T09:52:14;15.23;;;12.00;;
13989;SDS011;7069;52.528;13.316;2022-12-05T09:54:49;18.13;;;12.10;;
13989;SDS011;7069;52.528;13.316;2022-12-05T09:57:18;22.13;;;13.50;;
13989;SDS011;7069;52.528;13.316;2022-12-05T09:59:48;20.67;;;12.80;;
13989;SDS011;7069;52.528;13.316;2022-12-05T10:02:16;18.97;;;12.60;;
13989;SDS011;7069;52.528;13.316;2022-12-05T10:04:53;19.23;;;12.20;;
13989;SDS011;7069;52.528;13.316;2022-12-05T10:07:24;19.17;;;12.83;;
13989;SDS011;7069;52.528;13.316;2022-12-05T10:09:58;16.90;;;12.87;;
13989;SDS011;7069;52.528;13.316;2022-12-05T10:12:47;17.50;;;12.10;;
13989;SDS011;7069;52.528;13.316;2022-12-05T10:15:22;18.70;;;13.37;;
13989;SDS011;7069;52.528;13.316;2022-12-05T10:17:55;18.03;;;12.50;;
13989;SDS011;7069;52.528;13.316;2022-12-05T10:20:26;15.37;;;11.90;;
13989;SDS011;7069;52.528;13.316;2022-12-05T10:22:54;24.40;;;14.00;;
13989;SDS011;7069;52.528;13.316;2022-12-05T10:25:24;23.43;;;13.53;;
13989;SDS011;7069;52.528;13.316;2022-12-05T10:27:53;23.33;;;14.07;;
13989;SDS011;7069;52.528;13.316;2022-12-05T10:30:23;17.70;;;13.47;;
13989;SDS011;7069;52.528;13.316;2022-12-05T10:32:51;19.80;;;13.37;;
13989;SDS011;7069;52.528;13.316;2022-12-05T10:35:20;17.77;;;12.83;;
13989;SDS011;7069;52.528;13.316;2022-12-05T10:37:49;17.73;;;13.87;;
13989;SDS011;7069;52.528;13.316;2022-12-05T10:40:16;20.80;;;14.23;;
13989;SDS011;7069;52.528;13.316;2022-12-05T10:42:45;19.97;;;12.70;;
13989;SDS011;7069;52.528;13.316;2022-12-05T10:45:13;20.33;;;14.20;;
13989;SDS011;7069;52.528;13.316;2022-12-05T10:47:41;19.70;;;13.73;;
13989;SDS011;7069;52.528;13.316;2022-12-05T10:50:16;17.63;;;12.60;;
13989;SDS011;7069;52.528;13.316;2022-12-05T10:52:49;19.53;;;12.63;;
13989;SDS011;7069;52.528;13.316;2022-12-05T10:55:17;14.63;;;12.20;;
13989;SDS011;7069;52.528;13.316;2022-12-05T10:57:48;24.50;;;14.00;;
13989;SDS011;7069;52.528;13.316;2022-12-05T11:00:19;17.40;;;12.87;;
13989;SDS011;7069;52.528;13.316;2022-12-05T11:02:47;15.90;;;11.63;;
13989;SDS011;7069;52.528;13.316;2022-12-05T11:05:16;20.40;;;13.37;;
13989;SDS011;7069;52.528;13.316;2022-12-05T11:07:52;20.37;;;12.37;;
13989;SDS011;7069;52.528;13.316;2022-12-05T11:10:20;23.07;;;14.80;;
13989;SDS011;7069;52.528;13.316;2022-12-05T11:12:49;14.50;;;11.70;;
13989;SDS011;7069;52.528;13.316;2022-12-05T11:15:20;16.73;;;11.83;;
13989;SDS011;7069;52.528;13.316;2022-12-05T11:17:49;19.07;;;13.67;;
13989;SDS011;7069;52.528;13.316;2022-12-05T11:20:34;17.63;;;12.87;;
13989;SDS011;7069;52.528;13.316;2022-12-05T11:23:14;19.00;;;13.53;;
13989;SDS011;7069;52.528;13.316;2022-12-05T11:25:43;20.83;;;14.63;;
13989;SDS011;7069;52.528;13.316;2022-12-05T11:28:22;18.73;;;13.63;;
13989;SDS011;7069;52.528;13.316;2022-12-05T11:31:00;20.73;;;14.47;;
13989;SDS011;7069;52.528;13.316;2022-12-05T11:33:29;21.43;;;14.23;;
13989;SDS011;7069;52.528;13.316;2022-12-05T11:35:58;19.63;;;14.00;;
13989;SDS011;7069;52.528;13.316;2022-12-05T11:38:29;18.60;;;13.90;;
13989;SDS011;7069;52.528;13.316;2022-12-05T11:41:00;25.03;;;15.30;;
13989;SDS011;7069;52.528;13.316;2022-12-05T11:43:44;19.37;;;13.60;;
13989;SDS011;7069;52.528;13.316;2022-12-05T11:46:19;19.27;;;14.40;;
13989;SDS011;7069;52.528;13.316;2022-12-05T11:48:56;21.13;;;14.63;;
13989;SDS011;7069;52.528;13.316;2022-12-05T11:51:33;19.50;;;14.47;;
13989;SDS011;7069;52.528;13.316;2022-12-05T11:54:11;20.37;;;15.10;;
13989;SDS011;7069;52.528;13.316;2022-12-05T11:56:46;23.13;;;16.40;;
13989;SDS011;7069;52.528;13.316;2022-12-05T12:02:25;18.77;;;14.60;;
13989;SDS011;7069;52.528;13.316;2022-12-05T12:05:00;24.27;;;16.13;;
13989;SDS011;7069;52.528;13.316;2022-12-05T12:10:21;18.27;;;13.93;;
13989;SDS011;7069;52.528;13.316;2022-12-05T12:12:54;22.00;;;14.07;;
13989;SDS011;7069;52.528;13.316;2022-12-05T12:15:34;23.33;;;15.43;;
13989;SDS011;7069;52.528;13.316;2022-12-05T12:18:11;21.70;;;15.37;;
13989;SDS011;7069;52.528;13.316;2022-12-05T12:20:45;22.90;;;16.03;;
13989;SDS011;7069;52.528;13.316;2022-12-05T12:23:28;23.20;;;15.57;;
13989;SDS011;7069;52.528;13.316;2022-12-05T12:26:05;20.37;;;16.80;;
13989;SDS011;7069;52.528;13.316;2022-12-05T12:28:36;20.10;;;14.37;;
13989;SDS011;7069;52.528;13.316;2022-12-05T12:31:23;23.53;;;14.33;;
13989;SDS011;7069;52.528;13.316;2022-12-05T12:33:57;19.97;;;14.23;;
13989;SDS011;7069;52.528;13.316;2022-12-05T12:36:29;20.30;;;14.23;;
13989;SDS011;7069;52.528;13.316;2022-12-05T12:39:02;20.63;;;13.93;;
13989;SDS011;7069;52.528;13.316;2022-12-05T12:41:44;22.63;;;16.40;;
13989;SDS011;7069;52.528;13.316;2022-12-05T12:44:22;22.57;;;15.33;;
13989;SDS011;7069;52.528;13.316;2022-12-05T12:47:07;24.77;;;16.20;;
13989;SDS011;7069;52.528;13.316;2022-12-05T12:49:40;24.97;;;15.77;;
13989;SDS011;7069;52.528;13.316;2022-12-05T12:52:14;25.93;;;18.23;;
13989;SDS011;7069;52.528;13.316;2022-12-05T12:54:56;23.47;;;15.10;;
13989;SDS011;7069;52.528;13.316;2022-12-05T12:57:36;26.93;;;17.57;;
13989;SDS011;7069;52.528;13.316;2022-12-05T13:00:19;24.37;;;18.23;;
13989;SDS011;7069;52.528;13.316;2022-12-05T13:02:49;23.83;;;16.70;;
13989;SDS011;7069;52.528;13.316;2022-12-05T13:05:29;21.67;;;15.37;;
13989;SDS011;7069;52.528;13.316;2022-12-05T13:07:58;26.03;;;18.13;;
13989;SDS011;7069;52.528;13.316;2022-12-05T13:10:31;27.97;;;19.00;;
13989;SDS011;7069;52.528;13.316;2022-12-05T13:12:59;27.97;;;18.43;;
13989;SDS011;7069;52.528;13.316;2022-12-05T13:15:30;29.77;;;20.03;;
13989;SDS011;7069;52.528;13.316;2022-12-05T13:18:01;27.77;;;18.63;;
13989;SDS011;7069;52.528;13.316;2022-12-05T13:20:29;29.63;;;18.50;;
13989;SDS011;7069;52.528;13.316;2022-12-05T13:22:58;24.70;;;17.17;;
13989;SDS011;7069;52.528;13.316;2022-12-05T13:25:26;33.37;;;18.97;;
13989;SDS011;7069;52.528;13.316;2022-12-05T13:27:55;33.30;;;17.97;;
13989;SDS011;7069;52.528;13.316;2022-12-05T13:30:23;28.33;;;17.67;;
13989;SDS011;7069;52.528;13.316;2022-12-05T13:32:53;26.57;;;19.07;;
13989;SDS011;7069;52.528;13.316;2022-12-05T13:35:23;33.50;;;20.37;;
13989;SDS011;7069;52.528;13.316;2022-12-05T13:38:18;27.37;;;18.27;;
13989;SDS011;7069;52.528;13.316;2022-12-05T13:41:03;32.33;;;18.80;;
13989;SDS011;7069;52.528;13.316;2022-12-05T13:43:49;28.20;;;18.97;;
13989;SDS011;7069;52.528;13.316;2022-12-05T13:46:21;29.27;;;19.13;;
13989;SDS011;7069;52.528;13.316;2022-12-05T13:48:51;32.60;;;20.53;;
13989;SDS011;7069;52.528;13.316;2022-12-05T13:51:27;32.47;;;21.80;;
13989;SDS011;7069;52.528;13.316;2022-12-05T13:53:57;35.93;;;19.80;;
13989;SDS011;7069;52.528;13.316;2022-12-05T13:56:26;31.97;;;19.97;;
13989;SDS011;7069;52.528;13.316;2022-12-05T13:58:53;30.87;;;20.07;;
13989;SDS011;7069;52.528;13.316;2022-12-05T14:04:40;35.67;;;21.03;;
13989;SDS011;7069;52.528;13.316;2022-12-05T14:07:13;33.73;;;21.33;;
13989;SDS011;7069;52.528;13.316;2022-12-05T14:10:04;31.23;;;19.50;;
13989;SDS011;7069;52.528;13.316;2022-12-05T14:12:51;34.70;;;21.73;;
13989;SDS011;7069;52.528;13.316;2022-12-05T14:15:26;31.70;;;20.10;;
13989;SDS011;7069;52.528;13.316;2022-12-05T14:18:00;35.53;;;21.40;;
13989;SDS011;7069;52.528;13.316;2022-12-05T14:20:31;38.43;;;23.43;;
13989;SDS011;7069;52.528;13.316;2022-12-05T14:23:20;35.30;;;22.23;;
13989;SDS011;7069;52.528;13.316;2022-12-05T14:26:07;32.77;;;20.60;;
13989;SDS011;7069;52.528;13.316;2022-12-05T14:28:47;37.50;;;20.47;;
13989;SDS011;7069;52.528;13.316;2022-12-05T14:31:25;38.50;;;20.30;;
13989;SDS011;7069;52.528;13.316;2022-12-05T14:34:02;33.17;;;21.90;;
13989;SDS011;7069;52.528;13.316;2022-12-05T14:36:30;41.37;;;24.17;;
13989;SDS011;7069;52.528;13.316;2022-12-05T14:38:59;42.83;;;21.70;;
13989;SDS011;7069;52.528;13.316;2022-12-05T14:41:28;41.47;;;21.17;;
13989;SDS011;7069;52.528;13.316;2022-12-05T14:43:58;39.53;;;22.33;;
13989;SDS011;7069;52.528;13.316;2022-12-05T14:46:26;42.73;;;24.90;;
13989;SDS011;7069;52.528;13.316;2022-12-05T14:48:54;36.10;;;22.20;;
13989;SDS011;7069;52.528;13.316;2022-12-05T14:51:42;39.97;;;23.90;;